sensor_id;sensor_type;location;lat;lon;timestamp;temperature;humidity
49042;DHT22;34859;51.608;11.462;2024-01-16T00:01:20;1.00;99.90
49042;DHT22;34859;51.608;11.462;2024-01-16T00:04:04;1.00;99.90
49042;DHT22;34859;51.608;11.462;2024-01-16T00:06:48;1.00;99.90
49042;DHT22;34859;51.608;11.462;2024-01-16T00:09:32;0.90;99.90
49042;DHT22;34859;51.608;11.462;2024-01-16T00:12:16;0.90;99.90
49042;DHT22;34859;51.608;11.462;2024-01-16T00:15:00;0.90;99.90
49042;DHT22;34859;51.608;11.462;2024-01-16T00:17:45;0.90;99.90
49042;DHT22;34859;51.608;11.462;2024-01-16T00:20:29;0.90;99.90
49042;DHT22;34859;51.608;11.462;2024-01-16T00:23:13;0.80;99.90
49042;DHT22;34859;51.608;11.462;2024-01-16T00:25:58;0.80;99.90
49042;DHT22;34859;51.608;11.462;2024-01-16T00:28:43;0.80;99.90
49042;DHT22;34859;51.608;11.462;2024-01-16T00:31:27;0.80;99.90
49042;DHT22;34859;51.608;11.462;2024-01-16T00:34:11;0.70;99.90
49042;DHT22;34859;51.608;11.462;2024-01-16T00:36:55;0.70;99.90
49042;DHT22;34859;51.608;11.462;2024-01-16T00:39:36;0.70;99.90
49042;DHT22;34859;51.608;11.462;2024-01-16T00:42:18;0.70;99.90
49042;DHT22;34859;51.608;11.462;2024-01-16T00:45:02;0.70;99.90
49042;DHT22;34859;51.608;11.462;2024-01-16T00:47:46;0.70;99.90
49042;DHT22;34859;51.608;11.462;2024-01-16T00:50:30;0.70;99.90
49042;DHT22;34859;51.608;11.462;2024-01-16T00:53:12;0.70;99.90
49042;DHT22;34859;51.608;11.462;2024-01-16T00:55:56;0.70;99.90
49042;DHT22;34859;51.608;11.462;2024-01-16T00:58:41;0.70;99.90
49042;DHT22;34859;51.608;11.462;2024-01-16T01:01:25;0.70;99.90
49042;DHT22;34859;51.608;11.462;2024-01-16T01:04:09;0.70;99.90
49042;DHT22;34859;51.608;11.462;2024-01-16T01:06:50;0.70;99.90
49042;DHT22;34859;51.608;11.462;2024-01-16T01:09:34;0.80;99.90
49042;DHT22;34859;51.608;11.462;2024-01-16T01:12:15;0.70;99.90
49042;DHT22;34859;51.608;11.462;2024-01-16T01:14:59;0.70;99.90
49042;DHT22;34859;51.608;11.462;2024-01-16T01:17:43;0.80;99.90
49042;DHT22;34859;51.608;11.462;2024-01-16T01:20:25;0.80;99.90
49042;DHT22;34859;51.608;11.462;2024-01-16T01:23:09;0.90;99.90
49042;DHT22;34859;51.608;11.462;2024-01-16T01:25:51;1.00;99.90
49042;DHT22;34859;51.608;11.462;2024-01-16T01:28:36;1.00;99.90
49042;DHT22;34859;51.608;11.462;2024-01-16T01:31:23;0.90;99.90
49042;DHT22;34859;51.608;11.462;2024-01-16T01:34:07;0.80;99.90
49042;DHT22;34859;51.608;11.462;2024-01-16T01:36:51;0.70;99.90
49042;DHT22;34859;51.608;11.462;2024-01-16T01:39:35;0.70;99.90
49042;DHT22;34859;51.608;11.462;2024-01-16T01:42:20;0.70;99.90
49042;DHT22;34859;51.608;11.462;2024-01-16T01:45:04;0.60;99.90
49042;DHT22;34859;51.608;11.462;2024-01-16T01:47:49;0.60;99.90
49042;DHT22;34859;51.608;11.462;2024-01-16T01:50:33;0.70;99.90
49042;DHT22;34859;51.608;11.462;2024-01-16T01:53:17;0.80;99.90
49042;DHT22;34859;51.608;11.462;2024-01-16T01:55:58;0.80;99.90
49042;DHT22;34859;51.608;11.462;2024-01-16T01:58:42;0.80;99.90
49042;DHT22;34859;51.608;11.462;2024-01-16T02:01:28;0.80;99.90
49042;DHT22;34859;51.608;11.462;2024-01-16T02:04:14;0.80;99.90
49042;DHT22;34859;51.608;11.462;2024-01-16T02:07:01;0.90;99.90
49042;DHT22;34859;51.608;11.462;2024-01-16T02:09:44;0.90;99.90
49042;DHT22;34859;51.608;11.462;2024-01-16T02:12:25;0.90;99.90
49042;DHT22;34859;51.608;11.462;2024-01-16T02:15:09;0.90;99.90
49042;DHT22;34859;51.608;11.462;2024-01-16T02:17:53;0.90;99.90
49042;DHT22;34859;51.608;11.462;2024-01-16T02:20:34;0.80;99.90
49042;DHT22;34859;51.608;11.462;2024-01-16T02:23:28;0.80;99.90
49042;DHT22;34859;51.608;11.462;2024-01-16T02:26:17;0.80;99.90
49042;DHT22;34859;51.608;11.462;2024-01-16T02:29:01;0.70;99.90
49042;DHT22;34859;51.608;11.462;2024-01-16T02:31:46;0.70;99.90
49042;DHT22;34859;51.608;11.462;2024-01-16T02:34:30;0.60;99.90
49042;DHT22;34859;51.608;11.462;2024-01-16T02:37:15;0.50;99.90
49042;DHT22;34859;51.608;11.462;2024-01-16T02:39:56;0.50;99.90
49042;DHT22;34859;51.608;11.462;2024-01-16T02:42:40;0.50;99.90
49042;DHT22;34859;51.608;11.462;2024-01-16T02:45:25;0.50;99.90
49042;DHT22;34859;51.608;11.462;2024-01-16T02:48:09;0.60;99.90
49042;DHT22;34859;51.608;11.462;2024-01-16T02:50:53;0.60;99.90
49042;DHT22;34859;51.608;11.462;2024-01-16T02:53:37;0.60;99.90
49042;DHT22;34859;51.608;11.462;2024-01-16T02:56:21;0.60;99.90
49042;DHT22;34859;51.608;11.462;2024-01-16T02:59:05;0.60;99.90
49042;DHT22;34859;51.608;11.462;2024-01-16T03:01:46;0.50;99.90
49042;DHT22;34859;51.608;11.462;2024-01-16T03:04:30;0.50;99.90
49042;DHT22;34859;51.608;11.462;2024-01-16T03:07:14;0.40;99.90
49042;DHT22;34859;51.608;11.462;2024-01-16T03:09:58;0.40;99.90
49042;DHT22;34859;51.608;11.462;2024-01-16T03:12:42;0.50;99.90
49042;DHT22;34859;51.608;11.462;2024-01-16T03:15:26;0.50;99.90
49042;DHT22;34859;51.608;11.462;2024-01-16T03:18:10;0.60;99.90
49042;DHT22;34859;51.608;11.462;2024-01-16T03:20:55;0.60;99.90
49042;DHT22;34859;51.608;11.462;2024-01-16T03:23:39;0.60;99.90
49042;DHT22;34859;51.608;11.462;2024-01-16T03:26:23;0.70;99.90
49042;DHT22;34859;51.608;11.462;2024-01-16T03:29:07;0.80;99.90
49042;DHT22;34859;51.608;11.462;2024-01-16T03:31:48;0.60;99.90
49042;DHT22;34859;51.608;11.462;2024-01-16T03:34:30;0.40;99.90
49042;DHT22;34859;51.608;11.462;2024-01-16T03:37:12;0.40;99.90
49042;DHT22;34859;51.608;11.462;2024-01-16T03:39:56;0.40;99.90
49042;DHT22;34859;51.608;11.462;2024-01-16T03:42:38;0.40;99.90
49042;DHT22;34859;51.608;11.462;2024-01-16T03:45:22;0.30;99.90
49042;DHT22;34859;51.608;11.462;2024-01-16T03:48:06;0.30;99.90
49042;DHT22;34859;51.608;11.462;2024-01-16T03:50:50;0.30;99.90
49042;DHT22;34859;51.608;11.462;2024-01-16T03:53:34;0.40;99.90
49042;DHT22;34859;51.608;11.462;2024-01-16T03:56:18;0.30;99.90
49042;DHT22;34859;51.608;11.462;2024-01-16T03:59:02;0.30;99.90
49042;DHT22;34859;51.608;11.462;2024-01-16T04:01:47;0.40;99.90
49042;DHT22;34859;51.608;11.462;2024-01-16T04:04:32;0.30;99.90
49042;DHT22;34859;51.608;11.462;2024-01-16T04:07:13;0.30;99.90
49042;DHT22;34859;51.608;11.462;2024-01-16T04:09:57;0.40;99.90
49042;DHT22;34859;51.608;11.462;2024-01-16T04:12:41;0.50;99.90
49042;DHT22;34859;51.608;11.462;2024-01-16T04:15:25;0.60;99.90
49042;DHT22;34859;51.608;11.462;2024-01-16T04:18:10;0.60;99.90
49042;DHT22;34859;51.608;11.462;2024-01-16T04:20:54;0.60;99.90
49042;DHT22;34859;51.608;11.462;2024-01-16T04:23:38;0.50;99.90
49042;DHT22;34859;51.608;11.462;2024-01-16T04:26:22;0.50;99.90
49042;DHT22;34859;51.608;11.462;2024-01-16T04:29:05;0.40;99.90
49042;DHT22;34859;51.608;11.462;2024-01-16T04:31:50;0.30;99.90
49042;DHT22;34859;51.608;11.462;2024-01-16T04:34:34;0.20;99.90
49042;DHT22;34859;51.608;11.462;2024-01-16T04:37:15;0.20;99.90
49042;DHT22;34859;51.608;11.462;2024-01-16T04:39:56;0.20;99.90
49042;DHT22;34859;51.608;11.462;2024-01-16T04:42:42;0.10;99.90
49042;DHT22;34859;51.608;11.462;2024-01-16T04:45:27;0.10;99.90
49042;DHT22;34859;51.608;11.462;2024-01-16T04:48:11;0.20;99.90
49042;DHT22;34859;51.608;11.462;2024-01-16T04:50:55;0.30;99.90
49042;DHT22;34859;51.608;11.462;2024-01-16T04:53:39;0.40;99.90
49042;DHT22;34859;51.608;11.462;2024-01-16T04:56:24;0.40;99.90
49042;DHT22;34859;51.608;11.462;2024-01-16T04:59:09;0.50;99.90
49042;DHT22;34859;51.608;11.462;2024-01-16T05:01:51;0.30;99.90
49042;DHT22;34859;51.608;11.462;2024-01-16T05:04:37;0.30;99.90
49042;DHT22;34859;51.608;11.462;2024-01-16T05:07:23;0.30;99.90
49042;DHT22;34859;51.608;11.462;2024-01-16T05:10:12;0.30;99.90
49042;DHT22;34859;51.608;11.462;2024-01-16T05:12:59;0.30;99.90
49042;DHT22;34859;51.608;11.462;2024-01-16T05:15:43;0.40;99.90
49042;DHT22;34859;51.608;11.462;2024-01-16T05:18:27;0.40;99.90
49042;DHT22;34859;51.608;11.462;2024-01-16T05:21:11;0.40;99.90
49042;DHT22;34859;51.608;11.462;2024-01-16T05:23:56;0.40;99.90
49042;DHT22;34859;51.608;11.462;2024-01-16T05:26:40;0.40;99.90
49042;DHT22;34859;51.608;11.462;2024-01-16T05:29:24;0.20;99.90
49042;DHT22;34859;51.608;11.462;2024-01-16T05:32:08;0.20;99.90
49042;DHT22;34859;51.608;11.462;2024-01-16T05:34:52;0.20;99.90
49042;DHT22;34859;51.608;11.462;2024-01-16T05:37:36;0.10;99.90
49042;DHT22;34859;51.608;11.462;2024-01-16T05:40:21;0.00;99.90
49042;DHT22;34859;51.608;11.462;2024-01-16T05:43:06;-0.10;99.90
49042;DHT22;34859;51.608;11.462;2024-01-16T05:45:47;-0.20;99.90
49042;DHT22;34859;51.608;11.462;2024-01-16T05:48:31;-0.30;99.90
49042;DHT22;34859;51.608;11.462;2024-01-16T05:51:16;-0.30;99.90
49042;DHT22;34859;51.608;11.462;2024-01-16T05:54:00;-0.40;99.90
49042;DHT22;34859;51.608;11.462;2024-01-16T05:56:44;-0.40;99.90
49042;DHT22;34859;51.608;11.462;2024-01-16T05:59:28;-0.50;99.90
49042;DHT22;34859;51.608;11.462;2024-01-16T06:02:12;-0.50;99.90
49042;DHT22;34859;51.608;11.462;2024-01-16T06:04:56;-0.60;99.90
49042;DHT22;34859;51.608;11.462;2024-01-16T06:07:38;-0.60;99.90
49042;DHT22;34859;51.608;11.462;2024-01-16T06:10:23;-0.50;99.90
49042;DHT22;34859;51.608;11.462;2024-01-16T06:13:07;-0.60;99.90
49042;DHT22;34859;51.608;11.462;2024-01-16T06:15:51;-0.60;99.90
49042;DHT22;34859;51.608;11.462;2024-01-16T06:18:32;-0.60;99.90
49042;DHT22;34859;51.608;11.462;2024-01-16T06:21:16;-0.70;99.90
49042;DHT22;34859;51.608;11.462;2024-01-16T06:24:01;-0.80;99.90
49042;DHT22;34859;51.608;11.462;2024-01-16T06:26:45;-0.90;99.90
49042;DHT22;34859;51.608;11.462;2024-01-16T06:29:27;-0.90;99.90
49042;DHT22;34859;51.608;11.462;2024-01-16T06:32:11;-0.90;99.90
49042;DHT22;34859;51.608;11.462;2024-01-16T06:34:55;-0.90;99.90
49042;DHT22;34859;51.608;11.462;2024-01-16T06:37:36;-0.90;99.90
49042;DHT22;34859;51.608;11.462;2024-01-16T06:40:21;-1.00;99.90
49042;DHT22;34859;51.608;11.462;2024-01-16T06:43:05;-1.00;99.90
49042;DHT22;34859;51.608;11.462;2024-01-16T06:45:50;-1.10;99.90
49042;DHT22;34859;51.608;11.462;2024-01-16T06:48:38;-1.10;99.90
49042;DHT22;34859;51.608;11.462;2024-01-16T06:51:22;-1.10;99.90
49042;DHT22;34859;51.608;11.462;2024-01-16T06:54:03;-1.10;99.90
49042;DHT22;34859;51.608;11.462;2024-01-16T06:56:47;-1.00;99.90
49042;DHT22;34859;51.608;11.462;2024-01-16T06:59:33;-1.10;99.90
49042;DHT22;34859;51.608;11.462;2024-01-16T07:02:17;-1.10;99.90
49042;DHT22;34859;51.608;11.462;2024-01-16T07:05:01;-1.00;99.90
49042;DHT22;34859;51.608;11.462;2024-01-16T07:07:45;-1.10;99.90
49042;DHT22;34859;51.608;11.462;2024-01-16T07:10:29;-1.10;99.90
49042;DHT22;34859;51.608;11.462;2024-01-16T07:13:13;-1.20;99.90
49042;DHT22;34859;51.608;11.462;2024-01-16T07:15:55;-1.20;99.90
49042;DHT22;34859;51.608;11.462;2024-01-16T07:18:39;-1.20;99.90
49042;DHT22;34859;51.608;11.462;2024-01-16T07:21:24;-1.20;99.90
49042;DHT22;34859;51.608;11.462;2024-01-16T07:24:08;-1.30;99.90
49042;DHT22;34859;51.608;11.462;2024-01-16T07:26:50;-1.20;99.90
49042;DHT22;34859;51.608;11.462;2024-01-16T07:29:34;-1.10;99.90
49042;DHT22;34859;51.608;11.462;2024-01-16T07:32:18;-1.00;99.90
49042;DHT22;34859;51.608;11.462;2024-01-16T07:35:02;-0.90;99.90
49042;DHT22;34859;51.608;11.462;2024-01-16T07:37:47;-0.80;99.90
49042;DHT22;34859;51.608;11.462;2024-01-16T07:40:31;-0.70;99.90
49042;DHT22;34859;51.608;11.462;2024-01-16T07:43:15;-0.60;99.90
49042;DHT22;34859;51.608;11.462;2024-01-16T07:45:59;-0.50;99.90
49042;DHT22;34859;51.608;11.462;2024-01-16T07:48:43;-0.40;99.90
49042;DHT22;34859;51.608;11.462;2024-01-16T07:51:27;-0.40;99.90
49042;DHT22;34859;51.608;11.462;2024-01-16T07:54:11;-0.40;99.90
49042;DHT22;34859;51.608;11.462;2024-01-16T07:56:57;-0.30;99.90
49042;DHT22;34859;51.608;11.462;2024-01-16T07:59:41;-0.40;99.90
49042;DHT22;34859;51.608;11.462;2024-01-16T08:02:30;-0.40;99.90
49042;DHT22;34859;51.608;11.462;2024-01-16T08:05:15;-0.40;99.90
49042;DHT22;34859;51.608;11.462;2024-01-16T08:07:59;-0.30;99.90
49042;DHT22;34859;51.608;11.462;2024-01-16T08:10:43;-0.30;99.90
49042;DHT22;34859;51.608;11.462;2024-01-16T08:13:28;-0.30;99.90
49042;DHT22;34859;51.608;11.462;2024-01-16T08:16:09;-0.20;99.90
49042;DHT22;34859;51.608;11.462;2024-01-16T08:18:53;-0.20;99.90
49042;DHT22;34859;51.608;11.462;2024-01-16T08:21:37;-0.20;99.90
49042;DHT22;34859;51.608;11.462;2024-01-16T08:24:22;-0.10;99.90
49042;DHT22;34859;51.608;11.462;2024-01-16T08:27:06;-0.10;99.90
49042;DHT22;34859;51.608;11.462;2024-01-16T08:29:50;0.00;99.90
49042;DHT22;34859;51.608;11.462;2024-01-16T08:32:35;0.00;99.90
49042;DHT22;34859;51.608;11.462;2024-01-16T08:35:19;0.10;99.90
49042;DHT22;34859;51.608;11.462;2024-01-16T08:38:00;0.20;99.90
49042;DHT22;34859;51.608;11.462;2024-01-16T08:40:45;0.10;99.90
49042;DHT22;34859;51.608;11.462;2024-01-16T08:43:26;0.30;99.90
49042;DHT22;34859;51.608;11.462;2024-01-16T08:46:07;0.30;99.90
49042;DHT22;34859;51.608;11.462;2024-01-16T08:48:51;0.30;99.90
49042;DHT22;34859;51.608;11.462;2024-01-16T08:51:35;0.40;99.90
49042;DHT22;34859;51.608;11.462;2024-01-16T08:54:16;0.50;99.90
49042;DHT22;34859;51.608;11.462;2024-01-16T08:57:01;0.50;99.90
49042;DHT22;34859;51.608;11.462;2024-01-16T08:59:42;0.60;99.90
49042;DHT22;34859;51.608;11.462;2024-01-16T09:02:26;0.70;99.90
49042;DHT22;34859;51.608;11.462;2024-01-16T09:05:15;0.70;99.90
49042;DHT22;34859;51.608;11.462;2024-01-16T09:08:00;0.80;99.90
49042;DHT22;34859;51.608;11.462;2024-01-16T09:10:44;0.80;99.90
49042;DHT22;34859;51.608;11.462;2024-01-16T09:13:25;0.80;99.90
49042;DHT22;34859;51.608;11.462;2024-01-16T09:16:09;0.80;99.90
49042;DHT22;34859;51.608;11.462;2024-01-16T09:18:53;0.90;99.90
49042;DHT22;34859;51.608;11.462;2024-01-16T09:21:38;0.90;99.90
49042;DHT22;34859;51.608;11.462;2024-01-16T09:24:22;1.00;99.90
49042;DHT22;34859;51.608;11.462;2024-01-16T09:27:06;1.00;99.90
49042;DHT22;34859;51.608;11.462;2024-01-16T09:29:53;1.00;99.90
49042;DHT22;34859;51.608;11.462;2024-01-16T09:32:37;1.00;99.90
49042;DHT22;34859;51.608;11.462;2024-01-16T09:35:22;1.00;99.90
49042;DHT22;34859;51.608;11.462;2024-01-16T09:38:04;1.10;99.90
49042;DHT22;34859;51.608;11.462;2024-01-16T09:40:52;1.10;99.90
49042;DHT22;34859;51.608;11.462;2024-01-16T09:43:41;1.10;99.90
49042;DHT22;34859;51.608;11.462;2024-01-16T09:46:26;1.10;99.90
49042;DHT22;34859;51.608;11.462;2024-01-16T09:49:11;1.10;99.90
49042;DHT22;34859;51.608;11.462;2024-01-16T09:51:56;1.10;99.90
49042;DHT22;34859;51.608;11.462;2024-01-16T09:54:43;1.30;99.90
49042;DHT22;34859;51.608;11.462;2024-01-16T09:57:27;1.30;99.90
49042;DHT22;34859;51.608;11.462;2024-01-16T10:00:12;1.30;99.90
49042;DHT22;34859;51.608;11.462;2024-01-16T10:02:56;1.40;99.90
49042;DHT22;34859;51.608;11.462;2024-01-16T10:05:43;1.50;99.90
49042;DHT22;34859;51.608;11.462;2024-01-16T10:08:28;1.50;99.90
49042;DHT22;34859;51.608;11.462;2024-01-16T10:11:12;1.50;99.90
49042;DHT22;34859;51.608;11.462;2024-01-16T10:13:58;1.60;99.90
49042;DHT22;34859;51.608;11.462;2024-01-16T10:17:02;1.50;99.90
49042;DHT22;34859;51.608;11.462;2024-01-16T10:19:59;1.50;99.90
49042;DHT22;34859;51.608;11.462;2024-01-16T10:22:54;1.40;99.90
49042;DHT22;34859;51.608;11.462;2024-01-16T10:25:38;1.40;99.90
49042;DHT22;34859;51.608;11.462;2024-01-16T10:28:23;1.30;99.90
49042;DHT22;34859;51.608;11.462;2024-01-16T10:31:11;1.30;99.90
49042;DHT22;34859;51.608;11.462;2024-01-16T10:33:55;1.30;99.90
49042;DHT22;34859;51.608;11.462;2024-01-16T10:36:39;1.30;99.90
49042;DHT22;34859;51.608;11.462;2024-01-16T10:39:23;1.30;99.90
49042;DHT22;34859;51.608;11.462;2024-01-16T10:42:05;1.20;99.90
49042;DHT22;34859;51.608;11.462;2024-01-16T10:44:55;1.30;99.90
49042;DHT22;34859;51.608;11.462;2024-01-16T10:47:39;1.30;99.90
49042;DHT22;34859;51.608;11.462;2024-01-16T10:50:24;1.30;99.90
49042;DHT22;34859;51.608;11.462;2024-01-16T10:53:08;1.30;99.90
49042;DHT22;34859;51.608;11.462;2024-01-16T10:55:52;1.30;99.90
49042;DHT22;34859;51.608;11.462;2024-01-16T10:58:40;1.30;99.90
49042;DHT22;34859;51.608;11.462;2024-01-16T11:01:25;1.40;99.90
49042;DHT22;34859;51.608;11.462;2024-01-16T11:04:11;1.40;99.90
49042;DHT22;34859;51.608;11.462;2024-01-16T11:06:56;1.50;99.90
49042;DHT22;34859;51.608;11.462;2024-01-16T11:09:41;1.50;99.90
49042;DHT22;34859;51.608;11.462;2024-01-16T11:12:23;1.50;99.90
49042;DHT22;34859;51.608;11.462;2024-01-16T11:15:10;1.40;99.90
49042;DHT22;34859;51.608;11.462;2024-01-16T11:17:56;1.30;99.90
49042;DHT22;34859;51.608;11.462;2024-01-16T11:20:41;1.30;99.90
49042;DHT22;34859;51.608;11.462;2024-01-16T11:23:23;1.30;99.90
49042;DHT22;34859;51.608;11.462;2024-01-16T11:26:25;1.30;99.90
49042;DHT22;34859;51.608;11.462;2024-01-16T11:29:36;1.30;99.90
49042;DHT22;34859;51.608;11.462;2024-01-16T11:32:42;1.30;99.90
49042;DHT22;34859;51.608;11.462;2024-01-16T11:35:36;1.30;99.90
49042;DHT22;34859;51.608;11.462;2024-01-16T11:38:24;1.40;99.90
49042;DHT22;34859;51.608;11.462;2024-01-16T11:41:17;1.40;99.90
49042;DHT22;34859;51.608;11.462;2024-01-16T11:44:47;1.50;99.90
49042;DHT22;34859;51.608;11.462;2024-01-16T11:47:34;1.60;99.90
49042;DHT22;34859;51.608;11.462;2024-01-16T11:50:28;1.50;99.90
49042;DHT22;34859;51.608;11.462;2024-01-16T11:53:38;1.60;99.90
49042;DHT22;34859;51.608;11.462;2024-01-16T11:56:35;1.60;99.90
49042;DHT22;34859;51.608;11.462;2024-01-16T12:00:14;1.70;99.90
49042;DHT22;34859;51.608;11.462;2024-01-16T12:03:08;1.80;99.90
49042;DHT22;34859;51.608;11.462;2024-01-16T12:05:59;1.80;99.90
49042;DHT22;34859;51.608;11.462;2024-01-16T12:08:41;1.90;99.90
49042;DHT22;34859;51.608;11.462;2024-01-16T12:11:25;1.90;99.90
49042;DHT22;34859;51.608;11.462;2024-01-16T12:14:09;2.00;99.90
49042;DHT22;34859;51.608;11.462;2024-01-16T12:17:07;2.10;99.90
49042;DHT22;34859;51.608;11.462;2024-01-16T12:19:51;2.10;99.90
49042;DHT22;34859;51.608;11.462;2024-01-16T12:22:36;2.10;99.90
49042;DHT22;34859;51.608;11.462;2024-01-16T12:25:22;2.10;99.90
49042;DHT22;34859;51.608;11.462;2024-01-16T12:28:07;2.10;99.90
49042;DHT22;34859;51.608;11.462;2024-01-16T12:30:54;2.10;99.90
49042;DHT22;34859;51.608;11.462;2024-01-16T12:33:36;2.10;99.90
49042;DHT22;34859;51.608;11.462;2024-01-16T12:36:21;2.10;99.90
49042;DHT22;34859;51.608;11.462;2024-01-16T12:39:04;2.00;99.90
49042;DHT22;34859;51.608;11.462;2024-01-16T12:41:46;2.00;99.90
49042;DHT22;34859;51.608;11.462;2024-01-16T12:44:30;2.00;99.90
49042;DHT22;34859;51.608;11.462;2024-01-16T12:47:17;1.90;99.90
49042;DHT22;34859;51.608;11.462;2024-01-16T12:50:03;1.90;99.90
49042;DHT22;34859;51.608;11.462;2024-01-16T12:52:49;2.00;99.90
49042;DHT22;34859;51.608;11.462;2024-01-16T12:55:36;2.00;99.90
49042;DHT22;34859;51.608;11.462;2024-01-16T12:58:19;2.00;99.90
49042;DHT22;34859;51.608;11.462;2024-01-16T13:04:07;2.00;99.90
49042;DHT22;34859;51.608;11.462;2024-01-16T13:07:03;2.00;99.90
49042;DHT22;34859;51.608;11.462;2024-01-16T13:09:44;2.00;99.90
49042;DHT22;34859;51.608;11.462;2024-01-16T13:12:28;1.90;99.90
49042;DHT22;34859;51.608;11.462;2024-01-16T13:15:17;1.90;99.90
49042;DHT22;34859;51.608;11.462;2024-01-16T13:18:01;1.90;99.90
49042;DHT22;34859;51.608;11.462;2024-01-16T13:20:45;1.90;99.90
49042;DHT22;34859;51.608;11.462;2024-01-16T13:23:29;1.90;99.90
49042;DHT22;34859;51.608;11.462;2024-01-16T13:26:14;1.90;99.90
49042;DHT22;34859;51.608;11.462;2024-01-16T13:28:58;1.90;99.90
49042;DHT22;34859;51.608;11.462;2024-01-16T13:31:42;1.90;99.90
49042;DHT22;34859;51.608;11.462;2024-01-16T13:34:24;1.90;99.90
49042;DHT22;34859;51.608;11.462;2024-01-16T13:37:08;1.90;99.90
49042;DHT22;34859;51.608;11.462;2024-01-16T13:39:52;1.90;99.90
49042;DHT22;34859;51.608;11.462;2024-01-16T13:42:37;1.90;99.90
49042;DHT22;34859;51.608;11.462;2024-01-16T13:45:18;1.90;99.90
49042;DHT22;34859;51.608;11.462;2024-01-16T13:48:02;1.90;99.90
49042;DHT22;34859;51.608;11.462;2024-01-16T13:50:47;1.90;99.90
49042;DHT22;34859;51.608;11.462;2024-01-16T13:53:28;1.90;99.90
49042;DHT22;34859;51.608;11.462;2024-01-16T13:56:12;1.90;99.90
49042;DHT22;34859;51.608;11.462;2024-01-16T13:58:56;1.80;99.90
49042;DHT22;34859;51.608;11.462;2024-01-16T14:01:37;1.80;99.90
49042;DHT22;34859;51.608;11.462;2024-01-16T14:04:21;1.80;99.90
49042;DHT22;34859;51.608;11.462;2024-01-16T14:07:05;1.70;99.90
49042;DHT22;34859;51.608;11.462;2024-01-16T14:09:49;1.70;99.90
49042;DHT22;34859;51.608;11.462;2024-01-16T14:12:33;1.70;99.90
49042;DHT22;34859;51.608;11.462;2024-01-16T14:15:20;1.70;99.90
49042;DHT22;34859;51.608;11.462;2024-01-16T14:18:07;1.70;99.90
49042;DHT22;34859;51.608;11.462;2024-01-16T14:20:50;1.70;99.90
49042;DHT22;34859;51.608;11.462;2024-01-16T14:23:34;1.70;99.90
49042;DHT22;34859;51.608;11.462;2024-01-16T14:26:18;1.60;99.90
49042;DHT22;34859;51.608;11.462;2024-01-16T14:29:03;1.60;99.90
49042;DHT22;34859;51.608;11.462;2024-01-16T14:31:46;1.60;99.90
49042;DHT22;34859;51.608;11.462;2024-01-16T14:34:32;1.60;99.90
49042;DHT22;34859;51.608;11.462;2024-01-16T14:37:16;1.60;99.90
49042;DHT22;34859;51.608;11.462;2024-01-16T14:40:02;1.60;99.90
49042;DHT22;34859;51.608;11.462;2024-01-16T14:42:44;1.50;99.90
49042;DHT22;34859;51.608;11.462;2024-01-16T14:45:28;1.50;99.90
49042;DHT22;34859;51.608;11.462;2024-01-16T14:48:09;1.50;99.90
49042;DHT22;34859;51.608;11.462;2024-01-16T14:50:52;1.50;99.90
49042;DHT22;34859;51.608;11.462;2024-01-16T14:53:36;1.50;99.90
49042;DHT22;34859;51.608;11.462;2024-01-16T14:56:21;1.50;99.90
49042;DHT22;34859;51.608;11.462;2024-01-16T14:59:05;1.50;99.90
49042;DHT22;34859;51.608;11.462;2024-01-16T15:01:48;1.40;99.90
49042;DHT22;34859;51.608;11.462;2024-01-16T15:04:33;1.40;99.90
49042;DHT22;34859;51.608;11.462;2024-01-16T15:07:17;1.40;99.90
49042;DHT22;34859;51.608;11.462;2024-01-16T15:10:01;1.40;99.90
49042;DHT22;34859;51.608;11.462;2024-01-16T15:12:46;1.30;99.90
49042;DHT22;34859;51.608;11.462;2024-01-16T15:15:27;1.30;99.90
49042;DHT22;34859;51.608;11.462;2024-01-16T15:18:11;1.30;99.90
49042;DHT22;34859;51.608;11.462;2024-01-16T15:20:57;1.20;99.90
49042;DHT22;34859;51.608;11.462;2024-01-16T15:23:41;1.20;99.90
49042;DHT22;34859;51.608;11.462;2024-01-16T15:26:23;1.20;99.90
49042;DHT22;34859;51.608;11.462;2024-01-16T15:29:06;1.20;99.90
49042;DHT22;34859;51.608;11.462;2024-01-16T15:31:53;1.10;99.90
49042;DHT22;34859;51.608;11.462;2024-01-16T15:34:37;1.10;99.90
49042;DHT22;34859;51.608;11.462;2024-01-16T15:37:21;1.00;99.90
49042;DHT22;34859;51.608;11.462;2024-01-16T15:40:06;1.00;99.90
49042;DHT22;34859;51.608;11.462;2024-01-16T15:42:50;1.00;99.90
49042;DHT22;34859;51.608;11.462;2024-01-16T15:45:32;1.00;99.90
49042;DHT22;34859;51.608;11.462;2024-01-16T15:48:17;0.90;99.90
49042;DHT22;34859;51.608;11.462;2024-01-16T15:51:01;0.90;99.90
49042;DHT22;34859;51.608;11.462;2024-01-16T15:53:45;0.80;99.90
49042;DHT22;34859;51.608;11.462;2024-01-16T15:56:30;0.80;99.90
49042;DHT22;34859;51.608;11.462;2024-01-16T15:59:14;0.80;99.90
49042;DHT22;34859;51.608;11.462;2024-01-16T16:01:58;0.70;99.90
49042;DHT22;34859;51.608;11.462;2024-01-16T16:04:42;0.70;99.90
49042;DHT22;34859;51.608;11.462;2024-01-16T16:07:26;0.70;99.90
49042;DHT22;34859;51.608;11.462;2024-01-16T16:10:10;0.60;99.90
49042;DHT22;34859;51.608;11.462;2024-01-16T16:12:54;0.50;99.90
49042;DHT22;34859;51.608;11.462;2024-01-16T16:15:35;0.40;99.90
49042;DHT22;34859;51.608;11.462;2024-01-16T16:18:19;0.40;99.90
49042;DHT22;34859;51.608;11.462;2024-01-16T16:21:04;0.50;99.90
49042;DHT22;34859;51.608;11.462;2024-01-16T16:23:48;0.60;99.90
49042;DHT22;34859;51.608;11.462;2024-01-16T16:26:39;0.70;99.90
49042;DHT22;34859;51.608;11.462;2024-01-16T16:29:22;0.70;99.90
49042;DHT22;34859;51.608;11.462;2024-01-16T16:32:06;0.70;99.90
49042;DHT22;34859;51.608;11.462;2024-01-16T16:34:48;0.70;99.90
49042;DHT22;34859;51.608;11.462;2024-01-16T16:37:32;0.60;99.90
49042;DHT22;34859;51.608;11.462;2024-01-16T16:40:14;0.70;99.90
49042;DHT22;34859;51.608;11.462;2024-01-16T16:42:59;0.50;99.90
49042;DHT22;34859;51.608;11.462;2024-01-16T16:45:44;0.50;99.90
49042;DHT22;34859;51.608;11.462;2024-01-16T16:48:28;0.50;99.90
49042;DHT22;34859;51.608;11.462;2024-01-16T16:51:16;0.50;99.90
49042;DHT22;34859;51.608;11.462;2024-01-16T16:54:00;0.40;99.90
49042;DHT22;34859;51.608;11.462;2024-01-16T16:56:44;0.30;99.90
49042;DHT22;34859;51.608;11.462;2024-01-16T16:59:28;0.30;99.90
49042;DHT22;34859;51.608;11.462;2024-01-16T17:02:10;0.20;99.90
49042;DHT22;34859;51.608;11.462;2024-01-16T17:04:54;0.10;99.90
49042;DHT22;34859;51.608;11.462;2024-01-16T17:07:38;0.00;99.90
49042;DHT22;34859;51.608;11.462;2024-01-16T17:10:20;-0.10;99.90
49042;DHT22;34859;51.608;11.462;2024-01-16T17:13:04;0.00;99.90
49042;DHT22;34859;51.608;11.462;2024-01-16T17:15:45;-0.10;99.90
49042;DHT22;34859;51.608;11.462;2024-01-16T17:18:31;-0.10;99.90
49042;DHT22;34859;51.608;11.462;2024-01-16T17:21:18;-0.10;99.90